sensor_id;sensor_type;location;lat;lon;timestamp;pressure;altitude;pressure_sealevel;temperature;humidity
72210;BME280;60113;48.762;12.302;2023-03-19T00:00:22;96982.00;;;1.01;79.21
72210;BME280;60113;48.762;12.302;2023-03-19T00:02:47;96977.72;;;0.99;80.09
72210;BME280;60113;48.762;12.302;2023-03-19T00:05:15;96982.13;;;0.97;69.62
72210;BME280;60113;48.762;12.302;2023-03-19T00:07:40;96981.16;;;1.00;74.87
72210;BME280;60113;48.762;12.302;2023-03-19T00:10:06;96980.19;;;1.03;80.23
72210;BME280;60113;48.762;12.302;2023-03-19T00:12:31;96973.19;;;1.05;82.51
72210;BME280;60113;48.762;12.302;2023-03-19T00:14:56;96981.88;;;1.04;77.56
72210;BME280;60113;48.762;12.302;2023-03-19T00:17:22;96971.47;;;1.05;80.07
72210;BME280;60113;48.762;12.302;2023-03-19T00:19:47;96970.56;;;1.06;80.72
72210;BME280;60113;48.762;12.302;2023-03-19T00:22:13;96967.91;;;1.08;80.63
72210;BME280;60113;48.762;12.302;2023-03-19T00:24:41;96970.41;;;1.09;82.65
72210;BME280;60113;48.762;12.302;2023-03-19T00:27:06;96967.84;;;1.09;80.17
72210;BME280;60113;48.762;12.302;2023-03-19T00:29:32;96962.59;;;1.11;81.92
72210;BME280;60113;48.762;12.302;2023-03-19T00:31:57;96962.59;;;1.11;82.00
72210;BME280;60113;48.762;12.302;2023-03-19T00:34:25;96966.97;;;1.09;81.62
72210;BME280;60113;48.762;12.302;2023-03-19T00:36:51;96962.72;;;1.08;82.22
72210;BME280;60113;48.762;12.302;2023-03-19T00:39:19;96963.63;;;1.07;82.79
72210;BME280;60113;48.762;12.302;2023-03-19T00:41:45;96956.00;;;1.04;82.73
72210;BME280;60113;48.762;12.302;2023-03-19T00:44:17;96962.25;;;0.98;78.72
72210;BME280;60113;48.762;12.302;2023-03-19T00:46:43;96970.09;;;0.96;77.92
72210;BME280;60113;48.762;12.302;2023-03-19T00:49:08;96962.31;;;0.96;78.62
72210;BME280;60113;48.762;12.302;2023-03-19T00:51:33;96964.09;;;0.96;80.27
72210;BME280;60113;48.762;12.302;2023-03-19T00:53:59;96960.72;;;0.94;79.83
72210;BME280;60113;48.762;12.302;2023-03-19T00:56:24;96961.69;;;0.91;79.73
72210;BME280;60113;48.762;12.302;2023-03-19T00:58:50;96962.56;;;0.90;82.18
72210;BME280;60113;48.762;12.302;2023-03-19T01:01:16;96962.81;;;0.84;73.51
72210;BME280;60113;48.762;12.302;2023-03-19T01:03:42;96962.88;;;0.82;78.75
72210;BME280;60113;48.762;12.302;2023-03-19T01:06:08;96963.88;;;0.80;80.30
72210;BME280;60113;48.762;12.302;2023-03-19T01:08:33;96966.59;;;0.77;81.25
72210;BME280;60113;48.762;12.302;2023-03-19T01:11:09;96969.28;;;0.73;79.48
72210;BME280;60113;48.762;12.302;2023-03-19T01:13:35;96975.44;;;0.71;76.61
72210;BME280;60113;48.762;12.302;2023-03-19T01:16:00;96962.50;;;0.71;80.37
72210;BME280;60113;48.762;12.302;2023-03-19T01:18:26;96965.84;;;0.73;86.31
72210;BME280;60113;48.762;12.302;2023-03-19T01:20:51;96966.78;;;0.72;84.53
72210;BME280;60113;48.762;12.302;2023-03-19T01:23:19;96969.41;;;0.70;78.19
72210;BME280;60113;48.762;12.302;2023-03-19T01:25:45;96968.56;;;0.70;76.95
72210;BME280;60113;48.762;12.302;2023-03-19T01:28:10;96970.25;;;0.71;80.87
72210;BME280;60113;48.762;12.302;2023-03-19T01:30:36;96971.16;;;0.70;81.78
72210;BME280;60113;48.762;12.302;2023-03-19T01:33:01;96969.66;;;0.64;81.14
72210;BME280;60113;48.762;12.302;2023-03-19T01:35:26;96975.81;;;0.61;81.51
72210;BME280;60113;48.762;12.302;2023-03-19T01:37:51;96970.75;;;0.58;84.31
72210;BME280;60113;48.762;12.302;2023-03-19T01:40:17;96969.97;;;0.56;85.27
72210;BME280;60113;48.762;12.302;2023-03-19T01:45:28;96966.09;;;0.46;82.08
72210;BME280;60113;48.762;12.302;2023-03-19T01:47:55;96966.13;;;0.44;85.76
72210;BME280;60113;48.762;12.302;2023-03-19T01:50:23;96968.97;;;0.38;79.14
72210;BME280;60113;48.762;12.302;2023-03-19T01:52:49;96966.38;;;0.38;78.14
72210;BME280;60113;48.762;12.302;2023-03-19T01:55:15;96961.28;;;0.36;80.29
72210;BME280;60113;48.762;12.302;2023-03-19T01:57:40;96967.28;;;0.37;80.23
72210;BME280;60113;48.762;12.302;2023-03-19T02:00:06;96967.34;;;0.35;76.53
72210;BME280;60113;48.762;12.302;2023-03-19T02:02:33;96970.75;;;0.36;73.13
72210;BME280;60113;48.762;12.302;2023-03-19T02:05:00;96976.66;;;0.40;77.45
72210;BME280;60113;48.762;12.302;2023-03-19T02:07:28;96977.41;;;0.43;80.48
72210;BME280;60113;48.762;12.302;2023-03-19T02:09:54;96977.34;;;0.45;82.13
72210;BME280;60113;48.762;12.302;2023-03-19T02:12:20;96973.84;;;0.46;81.21
72210;BME280;60113;48.762;12.302;2023-03-19T02:17:39;96978.72;;;0.54;70.79
72210;BME280;60113;48.762;12.302;2023-03-19T02:20:23;96971.63;;;0.59;73.03
72210;BME280;60113;48.762;12.302;2023-03-19T02:22:57;96975.63;;;0.66;71.70
72210;BME280;60113;48.762;12.302;2023-03-19T02:28:09;96980.38;;;0.77;76.27
72210;BME280;60113;48.762;12.302;2023-03-19T02:30:35;96983.66;;;0.81;73.14
72210;BME280;60113;48.762;12.302;2023-03-19T02:33:00;96968.78;;;0.86;82.69
72210;BME280;60113;48.762;12.302;2023-03-19T02:35:26;96970.53;;;0.85;76.61
72210;BME280;60113;48.762;12.302;2023-03-19T02:37:53;96967.06;;;0.86;79.30
72210;BME280;60113;48.762;12.302;2023-03-19T02:40:22;96970.47;;;0.87;81.42
72210;BME280;60113;48.762;12.302;2023-03-19T02:42:48;96980.06;;;0.85;80.67
72210;BME280;60113;48.762;12.302;2023-03-19T02:45:14;96984.44;;;0.83;81.41
72210;BME280;60113;48.762;12.302;2023-03-19T02:47:39;96985.53;;;0.77;80.63
72210;BME280;60113;48.762;12.302;2023-03-19T02:50:05;96985.59;;;0.76;83.52
72210;BME280;60113;48.762;12.302;2023-03-19T02:52:32;96979.88;;;0.67;76.95
72210;BME280;60113;48.762;12.302;2023-03-19T02:54:57;96975.50;;;0.69;84.38
72210;BME280;60113;48.762;12.302;2023-03-19T02:57:25;96973.03;;;0.66;85.50
72210;BME280;60113;48.762;12.302;2023-03-19T02:59:50;96979.06;;;0.67;85.78
72210;BME280;60113;48.762;12.302;2023-03-19T03:02:16;96978.91;;;0.70;89.80
72210;BME280;60113;48.762;12.302;2023-03-19T03:04:41;96976.38;;;0.68;87.99
72210;BME280;60113;48.762;12.302;2023-03-19T03:07:07;96977.19;;;0.70;86.76
72210;BME280;60113;48.762;12.302;2023-03-19T03:09:32;96975.44;;;0.71;87.28
72210;BME280;60113;48.762;12.302;2023-03-19T03:11:58;96976.38;;;0.68;85.29
72210;BME280;60113;48.762;12.302;2023-03-19T03:14:26;96974.47;;;0.73;78.78
72210;BME280;60113;48.762;12.302;2023-03-19T03:16:51;96976.81;;;0.80;75.49
72210;BME280;60113;48.762;12.302;2023-03-19T03:19:17;96984.38;;;0.84;76.09
72210;BME280;60113;48.762;12.302;2023-03-19T03:21:43;96995.44;;;0.88;77.43
72210;BME280;60113;48.762;12.302;2023-03-19T03:24:08;96996.09;;;0.93;78.82
72210;BME280;60113;48.762;12.302;2023-03-19T03:26:35;97005.47;;;0.96;81.20
72210;BME280;60113;48.762;12.302;2023-03-19T03:29:03;96997.66;;;0.97;82.22
72210;BME280;60113;48.762;12.302;2023-03-19T03:31:28;97000.19;;;0.99;83.50
72210;BME280;60113;48.762;12.302;2023-03-19T03:33:54;96993.19;;;1.01;79.54
72210;BME280;60113;48.762;12.302;2023-03-19T03:36:19;97000.81;;;1.04;76.25
72210;BME280;60113;48.762;12.302;2023-03-19T03:38:45;97002.47;;;1.07;72.44
72210;BME280;60113;48.762;12.302;2023-03-19T03:41:10;96992.94;;;1.07;68.00
72210;BME280;60113;48.762;12.302;2023-03-19T03:43:36;96990.34;;;1.07;74.22
72210;BME280;60113;48.762;12.302;2023-03-19T03:46:01;96988.66;;;1.06;78.47
72210;BME280;60113;48.762;12.302;2023-03-19T03:48:27;96994.09;;;1.00;79.48
72210;BME280;60113;48.762;12.302;2023-03-19T03:50:52;96999.59;;;0.92;72.18
72210;BME280;60113;48.762;12.302;2023-03-19T03:53:18;97002.28;;;0.89;77.52
72210;BME280;60113;48.762;12.302;2023-03-19T03:55:43;97014.75;;;0.79;71.38
72210;BME280;60113;48.762;12.302;2023-03-19T03:58:08;97014.94;;;0.74;69.03
72210;BME280;60113;48.762;12.302;2023-03-19T04:00:35;97006.22;;;0.77;87.19
72210;BME280;60113;48.762;12.302;2023-03-19T04:03:01;97007.28;;;0.71;80.29
72210;BME280;60113;48.762;12.302;2023-03-19T04:05:36;97006.53;;;0.69;71.10
72210;BME280;60113;48.762;12.302;2023-03-19T04:08:02;97010.00;;;0.68;75.41
72210;BME280;60113;48.762;12.302;2023-03-19T04:10:27;97012.81;;;0.64;73.54
72210;BME280;60113;48.762;12.302;2023-03-19T04:12:53;97012.94;;;0.60;78.40
72210;BME280;60113;48.762;12.302;2023-03-19T04:15:18;97019.03;;;0.58;79.40
72210;BME280;60113;48.762;12.302;2023-03-19T04:17:44;97024.22;;;0.58;82.34
72210;BME280;60113;48.762;12.302;2023-03-19T04:20:10;97019.22;;;0.53;82.96
72210;BME280;60113;48.762;12.302;2023-03-19T04:22:36;97015.16;;;0.47;80.40
72210;BME280;60113;48.762;12.302;2023-03-19T04:25:01;97014.22;;;0.48;81.18
72210;BME280;60113;48.762;12.302;2023-03-19T04:27:27;97023.03;;;0.44;84.28
72210;BME280;60113;48.762;12.302;2023-03-19T04:29:52;97016.28;;;0.40;76.82
72210;BME280;60113;48.762;12.302;2023-03-19T04:32:18;97021.47;;;0.40;80.78
72210;BME280;60113;48.762;12.302;2023-03-19T04:34:43;97024.28;;;0.34;68.53
72210;BME280;60113;48.762;12.302;2023-03-19T04:37:09;97029.47;;;0.34;69.79
72210;BME280;60113;48.762;12.302;2023-03-19T04:39:35;97027.75;;;0.33;67.87
72210;BME280;60113;48.762;12.302;2023-03-19T04:42:00;97033.72;;;0.35;77.28
72210;BME280;60113;48.762;12.302;2023-03-19T04:44:26;97034.50;;;0.37;79.07
72210;BME280;60113;48.762;12.302;2023-03-19T04:46:51;97038.72;;;0.40;81.62
72210;BME280;60113;48.762;12.302;2023-03-19T04:49:16;97030.09;;;0.39;81.09
72210;BME280;60113;48.762;12.302;2023-03-19T04:51:42;97034.44;;;0.39;80.80
72210;BME280;60113;48.762;12.302;2023-03-19T04:54:11;97037.16;;;0.35;81.53
72210;BME280;60113;48.762;12.302;2023-03-19T04:56:36;97033.72;;;0.35;82.24
72210;BME280;60113;48.762;12.302;2023-03-19T04:59:01;97035.50;;;0.33;82.40
72210;BME280;60113;48.762;12.302;2023-03-19T05:01:27;97033.84;;;0.32;80.63
72210;BME280;60113;48.762;12.302;2023-03-19T05:03:52;97038.09;;;0.33;82.46
72210;BME280;60113;48.762;12.302;2023-03-19T05:06:18;97038.09;;;0.33;80.83
72210;BME280;60113;48.762;12.302;2023-03-19T05:08:44;97039.84;;;0.32;69.04
72210;BME280;60113;48.762;12.302;2023-03-19T05:11:09;97036.19;;;0.38;74.23
72210;BME280;60113;48.762;12.302;2023-03-19T05:13:37;97047.25;;;0.42;79.68
72210;BME280;60113;48.762;12.302;2023-03-19T05:16:02;97059.16;;;0.46;82.68
72210;BME280;60113;48.762;12.302;2023-03-19T05:18:28;97076.22;;;0.50;85.80
72210;BME280;60113;48.762;12.302;2023-03-19T05:20:53;97069.31;;;0.51;84.73
72210;BME280;60113;48.762;12.302;2023-03-19T05:23:21;97072.69;;;0.53;84.69
72210;BME280;60113;48.762;12.302;2023-03-19T05:25:47;97075.94;;;0.58;88.04
72210;BME280;60113;48.762;12.302;2023-03-19T05:28:13;97080.34;;;0.56;79.27
72210;BME280;60113;48.762;12.302;2023-03-19T05:30:39;97081.84;;;0.61;73.92
72210;BME280;60113;48.762;12.302;2023-03-19T05:33:04;97084.00;;;0.72;88.94
72210;BME280;60113;48.762;12.302;2023-03-19T05:35:30;97091.66;;;0.76;87.62
72210;BME280;60113;48.762;12.302;2023-03-19T05:37:56;97095.00;;;0.78;72.72
72210;BME280;60113;48.762;12.302;2023-03-19T05:40:21;97092.06;;;0.87;78.57
72210;BME280;60113;48.762;12.302;2023-03-19T05:42:48;97087.91;;;1.05;90.41
72210;BME280;60113;48.762;12.302;2023-03-19T05:45:13;97087.75;;;1.10;88.68
72210;BME280;60113;48.762;12.302;2023-03-19T05:47:39;97094.53;;;1.12;78.13
72210;BME280;60113;48.762;12.302;2023-03-19T05:50:08;97095.19;;;1.18;85.64
72210;BME280;60113;48.762;12.302;2023-03-19T05:52:33;97084.78;;;1.19;82.34
72210;BME280;60113;48.762;12.302;2023-03-19T05:54:58;97092.28;;;1.26;82.79
72210;BME280;60113;48.762;12.302;2023-03-19T05:57:24;97099.75;;;1.33;84.15
72210;BME280;60113;48.762;12.302;2023-03-19T05:59:49;97088.09;;;1.44;87.68
72210;BME280;60113;48.762;12.302;2023-03-19T06:02:15;97093.00;;;1.50;83.89
72210;BME280;60113;48.762;12.302;2023-03-19T06:04:40;97104.72;;;1.59;85.83
72210;BME280;60113;48.762;12.302;2023-03-19T06:07:05;97118.28;;;1.66;85.49
72210;BME280;60113;48.762;12.302;2023-03-19T06:09:31;97116.31;;;1.71;85.47
72210;BME280;60113;48.762;12.302;2023-03-19T06:11:56;97128.19;;;1.77;85.24
72210;BME280;60113;48.762;12.302;2023-03-19T06:14:22;97120.41;;;1.77;82.60
72210;BME280;60113;48.762;12.302;2023-03-19T06:16:47;97115.91;;;1.80;84.00
72210;BME280;60113;48.762;12.302;2023-03-19T06:19:13;97115.78;;;1.83;84.77
72210;BME280;60113;48.762;12.302;2023-03-19T06:21:38;97124.28;;;1.87;84.18
72210;BME280;60113;48.762;12.302;2023-03-19T06:24:04;97128.41;;;1.91;82.97
72210;BME280;60113;48.762;12.302;2023-03-19T06:26:29;97122.97;;;1.97;83.80
72210;BME280;60113;48.762;12.302;2023-03-19T06:28:55;97127.88;;;2.04;85.29
72210;BME280;60113;48.762;12.302;2023-03-19T06:31:20;97134.56;;;2.09;86.66
72210;BME280;60113;48.762;12.302;2023-03-19T06:33:46;97139.53;;;2.14;80.90
72210;BME280;60113;48.762;12.302;2023-03-19T06:36:13;97140.13;;;2.21;76.24
72210;BME280;60113;48.762;12.302;2023-03-19T06:38:38;97140.63;;;2.29;71.82
72210;BME280;60113;48.762;12.302;2023-03-19T06:41:04;97139.38;;;2.38;74.46
72210;BME280;60113;48.762;12.302;2023-03-19T06:43:29;97141.63;;;2.46;74.17
72210;BME280;60113;48.762;12.302;2023-03-19T06:45:55;97150.72;;;2.55;75.81
72210;BME280;60113;48.762;12.302;2023-03-19T06:48:21;97142.59;;;2.62;75.69
72210;BME280;60113;48.762;12.302;2023-03-19T06:50:46;97155.03;;;2.75;80.78
72210;BME280;60113;48.762;12.302;2023-03-19T06:53:12;97152.78;;;2.86;85.57
72210;BME280;60113;48.762;12.302;2023-03-19T06:55:37;97158.38;;;2.96;86.80
72210;BME280;60113;48.762;12.302;2023-03-19T06:58:04;97149.53;;;3.00;79.06
72210;BME280;60113;48.762;12.302;2023-03-19T07:00:29;97159.34;;;3.13;75.55
72210;BME280;60113;48.762;12.302;2023-03-19T07:02:54;97157.91;;;3.25;80.26
72210;BME280;60113;48.762;12.302;2023-03-19T07:05:20;97164.13;;;3.40;87.11
72210;BME280;60113;48.762;12.302;2023-03-19T07:07:45;97157.72;;;3.47;87.37
72210;BME280;60113;48.762;12.302;2023-03-19T07:10:11;97156.44;;;3.56;88.18
72210;BME280;60113;48.762;12.302;2023-03-19T07:12:36;97162.16;;;3.63;86.30
72210;BME280;60113;48.762;12.302;2023-03-19T07:15:01;97163.31;;;3.75;87.16
72210;BME280;60113;48.762;12.302;2023-03-19T07:17:27;97161.09;;;3.85;87.40
72210;BME280;60113;48.762;12.302;2023-03-19T07:19:52;97156.19;;;3.96;84.98
72210;BME280;60113;48.762;12.302;2023-03-19T07:22:17;97166.47;;;4.16;83.95
72210;BME280;60113;48.762;12.302;2023-03-19T07:24:43;97175.19;;;4.32;81.02
72210;BME280;60113;48.762;12.302;2023-03-19T07:27:08;97171.63;;;4.51;78.41
72210;BME280;60113;48.762;12.302;2023-03-19T07:29:34;97169.66;;;4.72;82.85
72210;BME280;60113;48.762;12.302;2023-03-19T07:31:59;97166.88;;;4.92;85.28
72210;BME280;60113;48.762;12.302;2023-03-19T07:34:27;97174.88;;;5.05;80.01
72210;BME280;60113;48.762;12.302;2023-03-19T07:36:53;97175.88;;;5.18;77.19
72210;BME280;60113;48.762;12.302;2023-03-19T07:39:19;97174.44;;;5.29;83.18
72210;BME280;60113;48.762;12.302;2023-03-19T07:41:45;97170.31;;;5.41;84.42
72210;BME280;60113;48.762;12.302;2023-03-19T07:44:12;97183.00;;;5.47;81.72
72210;BME280;60113;48.762;12.302;2023-03-19T07:46:38;97184.22;;;5.56;83.19
72210;BME280;60113;48.762;12.302;2023-03-19T07:49:03;97188.06;;;5.65;81.96
72210;BME280;60113;48.762;12.302;2023-03-19T07:51:28;97185.78;;;5.74;81.85
72210;BME280;60113;48.762;12.302;2023-03-19T07:53:54;97186.84;;;5.86;83.41
72210;BME280;60113;48.762;12.302;2023-03-19T07:56:19;97186.88;;;6.01;84.41
72210;BME280;60113;48.762;12.302;2023-03-19T07:58:47;97187.09;;;6.12;83.04
72210;BME280;60113;48.762;12.302;2023-03-19T08:01:13;97195.25;;;6.22;85.51
72210;BME280;60113;48.762;12.302;2023-03-19T08:03:38;97196.28;;;6.34;86.63
72210;BME280;60113;48.762;12.302;2023-03-19T08:06:04;97192.47;;;6.40;86.13
72210;BME280;60113;48.762;12.302;2023-03-19T08:08:29;97208.41;;;6.50;85.29
72210;BME280;60113;48.762;12.302;2023-03-19T08:10:55;97206.94;;;6.60;84.36
72210;BME280;60113;48.762;12.302;2023-03-19T08:13:20;97218.22;;;6.75;79.45
72210;BME280;60113;48.762;12.302;2023-03-19T08:15:47;97213.06;;;6.88;79.94
72210;BME280;60113;48.762;12.302;2023-03-19T08:18:13;97222.47;;;7.06;80.52
72210;BME280;60113;48.762;12.302;2023-03-19T08:20:38;97219.94;;;7.19;78.65
72210;BME280;60113;48.762;12.302;2023-03-19T08:23:04;97227.84;;;7.32;75.88
72210;BME280;60113;48.762;12.302;2023-03-19T08:25:29;97219.31;;;7.43;79.01
72210;BME280;60113;48.762;12.302;2023-03-19T08:27:57;97226.16;;;7.58;78.11
72210;BME280;60113;48.762;12.302;2023-03-19T08:30:22;97224.34;;;7.73;75.80
72210;BME280;60113;48.762;12.302;2023-03-19T08:32:47;97226.78;;;7.90;76.13
72210;BME280;60113;48.762;12.302;2023-03-19T08:35:14;97226.44;;;8.09;76.94
72210;BME280;60113;48.762;12.302;2023-03-19T08:37:42;97223.31;;;8.30;77.23
72210;BME280;60113;48.762;12.302;2023-03-19T08:40:08;97227.19;;;8.50;76.34
72210;BME280;60113;48.762;12.302;2023-03-19T08:42:33;97238.00;;;8.71;72.86
72210;BME280;60113;48.762;12.302;2023-03-19T08:45:00;97228.88;;;8.90;69.96
72210;BME280;60113;48.762;12.302;2023-03-19T08:47:25;97224.25;;;9.07;69.63
72210;BME280;60113;48.762;12.302;2023-03-19T08:49:51;97224.09;;;9.21;72.10
72210;BME280;60113;48.762;12.302;2023-03-19T08:52:17;97222.56;;;9.43;71.29
72210;BME280;60113;48.762;12.302;2023-03-19T08:54:42;97221.75;;;9.67;69.61
72210;BME280;60113;48.762;12.302;2023-03-19T08:57:08;97215.38;;;9.83;67.47
72210;BME280;60113;48.762;12.302;2023-03-19T08:59:33;97217.91;;;9.96;67.63
72210;BME280;60113;48.762;12.302;2023-03-19T09:01:58;97219.13;;;10.03;68.36
72210;BME280;60113;48.762;12.302;2023-03-19T09:04:26;97219.44;;;10.23;68.72
72210;BME280;60113;48.762;12.302;2023-03-19T09:06:52;97223.56;;;10.50;67.47
72210;BME280;60113;48.762;12.302;2023-03-19T09:09:18;97228.59;;;10.76;67.29
72210;BME280;60113;48.762;12.302;2023-03-19T09:11:43;97220.16;;;11.07;64.59
72210;BME280;60113;48.762;12.302;2023-03-19T09:14:08;97222.81;;;11.40;65.60
72210;BME280;60113;48.762;12.302;2023-03-19T09:16:38;97217.81;;;11.81;64.79
72210;BME280;60113;48.762;12.302;2023-03-19T09:19:04;97218.97;;;12.21;63.30
72210;BME280;60113;48.762;12.302;2023-03-19T09:21:29;97221.63;;;12.63;62.49
72210;BME280;60113;48.762;12.302;2023-03-19T09:23:55;97222.34;;;13.07;62.01
72210;BME280;60113;48.762;12.302;2023-03-19T09:26:20;97229.06;;;13.31;63.27
72210;BME280;60113;48.762;12.302;2023-03-19T09:28:49;97226.75;;;13.47;64.26
72210;BME280;60113;48.762;12.302;2023-03-19T09:31:14;97230.09;;;13.49;60.11
72210;BME280;60113;48.762;12.302;2023-03-19T09:33:39;97234.44;;;13.60;60.00
72210;BME280;60113;48.762;12.302;2023-03-19T09:36:05;97227.78;;;13.66;59.97
72210;BME280;60113;48.762;12.302;2023-03-19T09:38:30;97221.53;;;13.67;58.74
72210;BME280;60113;48.762;12.302;2023-03-19T09:43:37;97226.81;;;13.57;57.95
72210;BME280;60113;48.762;12.302;2023-03-19T09:46:10;97220.03;;;13.23;58.37
72210;BME280;60113;48.762;12.302;2023-03-19T09:48:39;97230.31;;;13.27;58.80
72210;BME280;60113;48.762;12.302;2023-03-19T09:51:09;97218.91;;;13.16;59.76
72210;BME280;60113;48.762;12.302;2023-03-19T09:53:39;97232.50;;;13.11;58.40
72210;BME280;60113;48.762;12.302;2023-03-19T09:56:11;97237.53;;;12.83;58.45
72210;BME280;60113;48.762;12.302;2023-03-19T09:58:38;97238.00;;;12.98;60.41
72210;BME280;60113;48.762;12.302;2023-03-19T10:01:10;97231.72;;;12.90;60.20
72210;BME280;60113;48.762;12.302;2023-03-19T10:03:46;97232.50;;;13.11;59.70
72210;BME280;60113;48.762;12.302;2023-03-19T10:06:29;97242.84;;;13.44;58.86
72210;BME280;60113;48.762;12.302;2023-03-19T10:12:24;97234.06;;;13.85;58.83
72210;BME280;60113;48.762;12.302;2023-03-19T10:16:45;97227.53;;;13.79;60.27
72210;BME280;60113;48.762;12.302;2023-03-19T10:19:13;97236.28;;;13.70;60.14
72210;BME280;60113;48.762;12.302;2023-03-19T10:22:03;97235.78;;;13.45;59.08
72210;BME280;60113;48.762;12.302;2023-03-19T10:24:36;97232.56;;;13.31;60.51
72210;BME280;60113;48.762;12.302;2023-03-19T10:27:12;97236.94;;;13.11;59.77
72210;BME280;60113;48.762;12.302;2023-03-19T10:29:38;97240.38;;;13.02;61.38
72210;BME280;60113;48.762;12.302;2023-03-19T10:34:43;97238.09;;;13.28;60.80
72210;BME280;60113;48.762;12.302;2023-03-19T10:39:37;97251.13;;;13.61;60.36
72210;BME280;60113;48.762;12.302;2023-03-19T10:44:42;97253.00;;;13.49;61.39
72210;BME280;60113;48.762;12.302;2023-03-19T10:47:13;97247.47;;;13.52;61.60
72210;BME280;60113;48.762;12.302;2023-03-19T10:49:39;97246.41;;;13.23;61.56
72210;BME280;60113;48.762;12.302;2023-03-19T10:52:04;97239.31;;;13.14;62.52
72210;BME280;60113;48.762;12.302;2023-03-19T10:54:33;97241.28;;;13.22;62.02
72210;BME280;60113;48.762;12.302;2023-03-19T10:57:04;97244.22;;;13.29;62.39
72210;BME280;60113;48.762;12.302;2023-03-19T11:02:00;97250.69;;;13.15;62.30
72210;BME280;60113;48.762;12.302;2023-03-19T11:04:29;97248.28;;;13.02;62.92
72210;BME280;60113;48.762;12.302;2023-03-19T11:07:02;97247.56;;;12.99;62.85
72210;BME280;60113;48.762;12.302;2023-03-19T11:09:36;97242.94;;;12.92;63.91
72210;BME280;60113;48.762;12.302;2023-03-19T11:12:07;97245.56;;;12.82;64.97
72210;BME280;60113;48.762;12.302;2023-03-19T11:14:36;97256.19;;;12.70;64.59
72210;BME280;60113;48.762;12.302;2023-03-19T11:17:22;97252.31;;;12.74;64.29
72210;BME280;60113;48.762;12.302;2023-03-19T11:22:18;97251.81;;;12.59;65.63
72210;BME280;60113;48.762;12.302;2023-03-19T11:24:49;97251.13;;;12.57;65.45
72210;BME280;60113;48.762;12.302;2023-03-19T11:27:14;97247.50;;;12.58;65.00
72210;BME280;60113;48.762;12.302;2023-03-19T11:29:40;97250.78;;;12.72;65.51
72210;BME280;60113;48.762;12.302;2023-03-19T11:34:44;97243.34;;;12.87;64.25
72210;BME280;60113;48.762;12.302;2023-03-19T11:37:19;97238.00;;;12.98;63.51
72210;BME280;60113;48.762;12.302;2023-03-19T11:40:00;97235.69;;;12.84;63.58
72210;BME280;60113;48.762;12.302;2023-03-19T12:00:56;97221.78;;;13.54;63.02
72210;BME280;60113;48.762;12.302;2023-03-19T12:03:32;97215.03;;;13.81;61.95
72210;BME280;60113;48.762;12.302;2023-03-19T12:06:09;97216.13;;;13.79;61.82
72210;BME280;60113;48.762;12.302;2023-03-19T12:11:23;97208.16;;;14.28;60.82
72210;BME280;60113;48.762;12.302;2023-03-19T12:13:56;97207.59;;;14.34;60.24
72210;BME280;60113;48.762;12.302;2023-03-19T12:19:06;97207.16;;;14.39;60.32
72210;BME280;60113;48.762;12.302;2023-03-19T12:26:49;97204.44;;;14.11;60.30
72210;BME280;60113;48.762;12.302;2023-03-19T12:29:53;97205.41;;;14.10;60.65
72210;BME280;60113;48.762;12.302;2023-03-19T12:34:55;97197.38;;;13.72;61.66
72210;BME280;60113;48.762;12.302;2023-03-19T12:37:28;97213.53;;;13.47;63.70
72210;BME280;60113;48.762;12.302;2023-03-19T12:40:04;97201.66;;;13.73;61.69
72210;BME280;60113;48.762;12.302;2023-03-19T12:42:38;97202.38;;;13.75;61.22
72210;BME280;60113;48.762;12.302;2023-03-19T12:45:07;97201.88;;;13.40;61.74
72210;BME280;60113;48.762;12.302;2023-03-19T12:47:37;97194.69;;;13.01;63.00
72210;BME280;60113;48.762;12.302;2023-03-19T12:50:05;97193.88;;;13.00;64.01
72210;BME280;60113;48.762;12.302;2023-03-19T12:52:39;97197.28;;;13.22;63.25
72210;BME280;60113;48.762;12.302;2023-03-19T12:55:13;97197.06;;;13.55;62.52
72210;BME280;60113;48.762;12.302;2023-03-19T12:57:50;97193.75;;;13.73;61.90
72210;BME280;60113;48.762;12.302;2023-03-19T13:11:03;97176.50;;;13.88;60.43
72210;BME280;60113;48.762;12.302;2023-03-19T13:21:30;97172.34;;;13.86;60.84
72210;BME280;60113;48.762;12.302;2023-03-19T13:26:33;97161.19;;;14.12;61.23
72210;BME280;60113;48.762;12.302;2023-03-19T13:29:00;97169.09;;;14.32;60.58
72210;BME280;60113;48.762;12.302;2023-03-19T13:31:26;97170.72;;;14.53;59.95
72210;BME280;60113;48.762;12.302;2023-03-19T13:33:59;97166.72;;;14.77;59.68
72210;BME280;60113;48.762;12.302;2023-03-19T13:36:30;97163.50;;;14.83;58.35
72210;BME280;60113;48.762;12.302;2023-03-19T13:38:59;97158.47;;;14.90;58.24
72210;BME280;60113;48.762;12.302;2023-03-19T13:43:57;97159.25;;;15.00;58.53
72210;BME280;60113;48.762;12.302;2023-03-19T13:46:28;97155.47;;;15.03;59.12
72210;BME280;60113;48.762;12.302;2023-03-19T13:48:53;97153.13;;;14.99;58.15
72210;BME280;60113;48.762;12.302;2023-03-19T13:51:29;97153.22;;;15.08;59.95
72210;BME280;60113;48.762;12.302;2023-03-19T14:01:48;97141.19;;;15.78;55.61
72210;BME280;60113;48.762;12.302;2023-03-19T14:04:17;97140.72;;;16.01;54.92
72210;BME280;60113;48.762;12.302;2023-03-19T14:06:47;97136.63;;;16.33;59.41
72210;BME280;60113;48.762;12.302;2023-03-19T14:14:42;97123.91;;;16.45;53.58
72210;BME280;60113;48.762;12.302;2023-03-19T14:17:24;97124.13;;;16.52;53.67
72210;BME280;60113;48.762;12.302;2023-03-19T14:19:51;97116.88;;;16.62;54.18
72210;BME280;60113;48.762;12.302;2023-03-19T14:25:50;97112.59;;;16.35;52.66
72210;BME280;60113;48.762;12.302;2023-03-19T14:27:49;97124.69;;;16.29;55.25
72210;BME280;60113;48.762;12.302;2023-03-19T14:33:01;97117.06;;;16.08;54.21
72210;BME280;60113;48.762;12.302;2023-03-19T14:35:32;97124.28;;;15.97;57.58
72210;BME280;60113;48.762;12.302;2023-03-19T14:38:00;97117.69;;;15.83;54.07
72210;BME280;60113;48.762;12.302;2023-03-19T14:45:32;97119.25;;;15.31;55.15
72210;BME280;60113;48.762;12.302;2023-03-19T14:53:22;97124.03;;;14.99;58.11